Latest Weather Observations for Lord Howe Island

IDN60801

Issued at 2:02 am EST Monday 3 August 2015 (issued every 30 minutes, with the page automatically refreshed every 10 minutes)

About weather observations | Map of weather stations | Latest weather observations for NSW | Other Formats
Station Details ID: 200839 Name: LORD HOWE ISLAND AERO Lat: -31.54 Lon: 159.08 Height: 5.0 m
Data from the previous 72 hours. | See also: Recent months at Lord Howe Island
Date/Time
EST
Temp
°C
App
Temp
°C
Dew
Point
Rel
Hum
%
Delta-T
°C
Wind Press
QNH
hPa
Press
MSL
hPa
Rain
since 9 am
mm
Dir
 
Spd
km/h
Gust
km/h
Spd
kts
Gust
kts
03/02:00am 19.4 17.3 14.6 74 2.8 NNW 19 35 10 19 1018.7 - 0.0
03/01:33am 19.5 17.9 15.1 76 2.6 NW 17 28 9 15 1019.3 - 0.0
03/01:30am 19.4 17.8 14.9 75 2.6 NW 17 28 9 15 1019.4 - 0.0
03/01:00am 19.4 18.1 14.8 75 2.7 NNW 15 32 8 17 1019.6 - 0.0
03/12:30am 19.2 17.7 14.3 73 2.8 NNW 15 28 8 15 1019.8 - 0.0
03/12:00am 19.3 17.9 14.5 74 2.8 NNW 15 28 8 15 1019.6 - 0.0
 
Date/Time
EST
Temp
°C
App
Temp
°C
Dew
Point
Rel
Hum
%
Delta-T
°C
Wind Press
QNH
hPa
Press
MSL
hPa
Rain
since 9 am
mm
Dir
 
Spd
km/h
Gust
km/h
Spd
kts
Gust
kts
02/11:30pm 19.2 18.1 14.2 73 2.9 N 13 24 7 13 1019.9 1019.9 0.0
02/11:00pm 19.3 17.4 14.1 72 3.0 NNW 17 32 9 17 1020.3 - 0.0
02/10:30pm 19.3 17.9 13.5 69 3.3 N 13 30 7 16 1020.6 - 0.0
02/10:00pm 19.2 17.9 13.8 71 3.1 N 13 24 7 13 1020.8 - 0.0
02/09:30pm 19.2 17.9 13.6 70 3.2 NNW 13 32 7 17 1021.1 - 0.0
02/09:00pm 19.4 18.0 13.4 68 3.4 NNW 13 30 7 16 1021.3 - 0.0
02/08:30pm 19.4 17.7 13.6 69 3.3 NNW 15 30 8 16 1021.4 1021.4 0.0
02/08:00pm 19.3 18.7 13.5 69 3.3 NNW 9 15 5 8 1021.6 - 0.0
02/07:30pm 19.4 18.0 13.4 68 3.4 NNW 13 28 7 15 1021.6 - 0.0
02/07:00pm 19.2 18.3 13.8 71 3.1 NNW 11 20 6 11 1021.4 - 0.0
02/06:30pm 19.3 16.9 13.7 70 3.2 WNW 19 26 10 14 1021.5 - 0.0
02/06:00pm 19.2 18.4 14.0 72 3.0 NNW 11 22 6 12 1021.3 - 0.0
02/05:30pm 19.3 17.6 13.7 70 3.2 NW 15 24 8 13 1020.9 1020.9 0.0
02/05:00pm 19.2 18.1 14.3 73 2.8 NNW 13 26 7 14 1020.5 - 0.0
02/04:30pm 19.3 18.7 14.5 74 2.8 NNW 11 22 6 12 1020.6 - 0.0
02/04:00pm 19.6 18.0 13.8 69 3.3 NW 15 24 8 13 1020.8 - 0.0
02/03:30pm 20.0 18.8 13.9 68 3.5 NNW 13 17 7 9 1020.4 - 0.0
02/03:00pm 20.4 18.5 14.2 67 3.6 NNW 17 30 9 16 1020.3 - 0.0
02/02:30pm 19.9 17.9 14.0 69 3.4 NNW 17 32 9 17 1020.3 1020.3 0.0
02/02:00pm 20.4 19.3 14.2 67 3.6 NNW 13 22 7 12 1020.6 - 0.0
02/01:30pm 20.5 19.1 13.5 64 4.0 N 13 24 7 13 1020.8 - 0.0
02/01:00pm 20.6 19.0 14.0 66 3.8 NW 15 20 8 11 1020.9 - 0.0
02/12:30pm 20.1 17.7 13.8 67 3.6 N 19 28 10 15 1021.3 - 0.0
02/12:00pm 20.5 19.2 13.7 65 3.9 NW 13 26 7 14 1021.8 - 0.0
02/11:30am 20.7 19.0 13.7 64 4.0 NW 15 32 8 17 1022.4 1022.4 0.0
02/11:00am 20.4 18.5 14.2 67 3.6 NW 17 32 9 17 1022.9 - 0.0
02/10:30am 20.5 18.7 14.5 68 3.5 WNW 17 32 9 17 1022.9 - 0.0
02/10:00am 20.5 19.0 14.1 66 3.7 NW 15 26 8 14 1023.3 - 0.0
02/09:30am 20.5 19.9 14.7 69 3.4 NW 11 22 6 12 1023.4 - 0.0
02/09:00am 19.9 18.9 14.7 72 3.0 NW 13 22 7 12 1023.4 - 0.0
02/08:30am 19.5 18.5 14.5 73 2.9 WNW 13 22 7 12 1023.3 1023.3 0.0
02/08:00am 19.8 18.9 14.8 73 2.9 WNW 13 20 7 11 1023.2 - 0.0
02/07:30am 19.2 18.0 14.1 72 2.9 NW 13 24 7 13 1023.0 - 0.0
02/07:00am 19.1 18.5 14.6 75 2.6 NW 11 24 6 13 1022.9 - 0.0
02/06:30am 18.7 17.5 14.0 74 2.7 NW 13 19 7 10 1022.5 - 0.0
02/06:00am 18.5 17.2 13.6 73 2.8 WNW 13 26 7 14 1022.4 - 0.0
02/05:30am 18.4 17.8 13.4 72 2.8 NW 9 15 5 8 1022.2 1022.2 0.0
02/05:00am 18.4 17.8 13.4 72 2.8 WNW 9 20 5 11 1021.8 - 0.0
02/04:30am 18.3 17.8 13.9 75 2.5 NW 9 17 5 9 1022.0 - 0.0
02/04:00am 18.2 16.8 13.4 73 2.7 NNW 13 22 7 12 1022.1 - 0.0
02/03:30am 18.4 16.9 13.2 71 2.9 NW 13 22 7 12 1022.2 - 0.0
02/03:00am 18.2 16.7 13.2 72 2.8 NW 13 20 7 11 1022.5 - 0.0
02/02:30am 17.9 17.2 13.1 73 2.7 NW 9 19 5 10 1022.6 1022.6 0.0
02/02:00am 17.9 16.7 12.9 72 2.8 NW 11 17 6 9 1023.0 - 0.0
02/01:30am 17.5 16.5 12.2 71 2.9 NNW 9 15 5 8 1023.2 - 0.0
02/01:00am 17.5 16.6 11.2 66 3.4 NNW 7 11 4 6 1023.4 - 0.0
02/12:30am 17.3 16.3 11.0 66 3.4 NNW 7 13 4 7 1023.5 - 0.0
02/12:00am 16.7 15.6 10.7 67 3.2 N 7 11 4 6 1023.5 - 0.0
 
Date/Time
EST
Temp
°C
App
Temp
°C
Dew
Point
Rel
Hum
%
Delta-T
°C
Wind Press
QNH
hPa
Press
MSL
hPa
Rain
since 9 am
mm
Dir
 
Spd
km/h
Gust
km/h
Spd
kts
Gust
kts
01/11:30pm 17.0 15.4 10.2 64 3.6 N 9 13 5 7 1023.7 1023.7 0.0
01/11:00pm 15.8 15.3 10.9 72 2.6 NNW 4 9 2 5 1023.8 - 0.0
01/10:30pm 16.2 15.3 10.5 69 3.0 NNW 6 7 3 4 1023.9 - 0.0
01/10:00pm 16.4 15.1 10.1 66 3.3 NNW 7 13 4 7 1024.0 - 0.0
01/09:30pm 15.9 14.5 9.7 66 3.2 NNW 7 13 4 7 1024.1 - 0.0
01/09:00pm 14.5 14.4 9.6 72 2.5 CALM 0 0 0 0 1023.9 - 0.0
01/08:30pm 13.9 14.0 10.0 77 2.0 CALM 0 0 0 0 1023.8 1023.8 0.0
01/08:00pm 14.6 14.7 10.0 74 2.4 CALM 0 4 0 2 1023.7 - 0.0
01/07:30pm 15.3 14.6 10.1 71 2.7 N 4 7 2 4 1023.4 - 0.0
01/07:00pm 15.7 14.5 9.5 66 3.2 WNW 6 9 3 5 1023.0 - 0.0
01/06:30pm 14.8 14.9 10.2 74 2.4 CALM 0 2 0 1 1022.5 - 0.0
01/06:00pm 15.3 14.9 9.9 70 2.8 NNW 2 7 1 4 1022.1 - 0.0
01/05:30pm 15.7 15.0 10.2 70 2.9 NW 4 7 2 4 1021.9 1021.9 0.0
01/05:00pm 16.0 15.1 10.5 70 2.9 NNW 6 9 3 5 1021.6 - 0.0
01/04:30pm 17.6 15.6 10.2 62 3.9 W 11 17 6 9 1021.4 - 0.0
01/04:00pm 19.1 17.6 10.5 57 4.6 WNW 9 13 5 7 1021.2 - 0.0
01/03:30pm 19.4 16.2 9.8 53 5.1 W 17 22 9 12 1021.4 - 0.0
01/03:00pm 19.5 16.0 10.8 57 4.7 W 20 26 11 14 1021.4 - 0.0
01/02:30pm 19.6 16.4 11.8 60 4.3 W 20 24 11 13 1021.5 1021.5 0.0
01/02:00pm 20.1 17.5 12.0 59 4.5 W 17 22 9 12 1021.6 - 0.0
01/01:30pm 19.2 17.3 11.7 62 4.1 W 13 19 7 10 1021.4 - 0.0
01/01:00pm 20.3 18.5 10.9 54 5.1 WNW 11 19 6 10 1021.6 - 0.0
01/12:30pm 20.0 18.9 11.9 59 4.5 N 9 17 5 9 1021.7 - 0.0
01/12:00pm 20.1 18.6 12.0 59 4.5 N 11 15 6 8 1022.0 - 0.0
01/11:30am 20.0 18.9 12.1 60 4.4 W 9 13 5 7 1022.5 1022.5 0.0
01/11:00am 19.8 18.8 12.3 62 4.2 WSW 9 13 5 7 1023.0 - 0.0
01/10:30am 20.1 18.9 11.6 58 4.7 NE 9 11 5 6 1023.4 - 0.0
01/10:00am 19.8 19.5 11.6 59 4.5 WNW 4 9 2 5 1023.5 - 0.0
01/09:30am 19.2 18.3 11.5 61 4.2 WSW 7 9 4 5 1023.6 - 0.0
01/09:00am 18.2 17.8 12.4 69 3.2 WSW 6 7 3 4 1023.6 - 0.0
01/08:30am 17.5 18.3 12.4 72 2.8 CALM 0 0 0 0 1023.6 1023.6 3.2
01/08:00am 16.5 17.8 14.0 85 1.4 CALM 0 0 0 0 1023.4 - 3.2
01/07:30am 15.2 16.3 13.6 90 0.9 CALM 0 0 0 0 1023.0 - 3.2
01/07:00am 13.0 13.6 11.9 93 0.6 CALM 0 0 0 0 1022.6 - 3.2
01/06:30am 11.2 11.0 10.4 95 0.4 S 2 6 1 3 1022.4 - 3.2
01/06:00am 11.0 11.1 10.2 95 0.4 CALM 0 0 0 0 1022.4 - 3.2
01/05:45am 10.8 10.9 10.0 95 0.4 CALM 0 0 0 0 1022.1 - 3.2
01/05:35am 10.7 10.8 10.1 96 0.3 CALM 0 0 0 0 1022.1 - 3.2
01/05:30am 10.8 10.9 10.0 95 0.4 CALM 0 0 0 0 1021.9 1021.9 3.2
01/05:15am 11.2 11.4 10.6 96 0.3 CALM 0 0 0 0 1021.6 - 3.2
01/05:09am 11.0 11.2 10.6 97 0.2 CALM 0 0 0 0 1021.5 - 3.2
01/05:07am 11.1 11.3 10.7 97 0.2 CALM 0 0 0 0 1021.4 - 3.2
01/05:00am 11.4 11.7 10.8 96 0.3 CALM 0 0 0 0 1021.3 - 3.2
01/04:49am 11.4 11.6 10.6 95 0.4 CALM 0 0 0 0 1021.3 - 3.2
01/04:30am 11.8 12.1 10.8 94 0.5 CALM 0 0 0 0 1021.1 - 3.2
01/04:00am 13.4 12.8 11.7 89 0.9 SSW 6 7 3 4 1021.3 - 3.2
01/03:30am 16.1 15.1 12.3 78 2.1 S 9 17 5 9 1021.3 - 3.2
01/03:00am 12.9 13.6 12.3 96 0.3 CALM 0 0 0 0 1021.1 - 3.2
01/02:30am 12.9 13.6 12.3 96 0.3 CALM 0 0 0 0 1021.3 1021.3 3.2
01/02:23am 12.8 13.5 12.2 96 0.3 CALM 0 0 0 0 1021.4 - 3.2
01/02:18am 12.9 13.7 12.5 97 0.2 CALM 0 0 0 0 1021.6 - 3.2
01/02:00am 12.3 12.9 11.9 97 0.2 CALM 0 0 0 0 1021.6 - 3.2
01/01:57am 12.4 12.9 11.6 95 0.4 CALM 0 0 0 0 1021.6 - 3.2
01/01:44am 12.4 13.0 12.0 97 0.2 CALM 0 0 0 0 1021.7 - 3.2
01/01:30am 11.9 12.1 11.9 100 0.0 SW 2 6 1 3 1021.8 - 3.2
01/01:19am 11.9 12.3 11.3 96 0.3 CALM 0 0 0 0 1021.8 - 3.2
01/01:17am 11.8 12.2 11.2 96 0.3 CALM 0 0 0 0 1021.8 - 3.2
01/01:00am 12.4 13.0 12.0 97 0.2 CALM 0 0 0 0 1021.8 - 3.2
01/12:42am 13.3 14.1 12.6 95 0.4 CALM 0 0 0 0 1021.9 - 3.2
01/12:33am 12.9 13.6 12.3 96 0.3 CALM 0 0 0 0 1021.9 - 3.2
01/12:30am 12.9 13.7 12.5 97 0.2 CALM 0 2 0 1 1021.9 - 3.2
01/12:08am 12.7 13.5 12.5 99 0.1 CALM 0 0 0 0 1022.0 - 3.2
01/12:00am 12.8 13.2 12.4 97 0.2 N 2 7 1 4 1022.0 - 3.2
 
Date/Time
EST
Temp
°C
App
Temp
°C
Dew
Point
Rel
Hum
%
Delta-T
°C
Wind Press
QNH
hPa
Press
MSL
hPa
Rain
since 9 am
mm
Dir
 
Spd
km/h
Gust
km/h
Spd
kts
Gust
kts
31/11:30pm 12.1 12.6 11.7 97 0.2 CALM 0 0 0 0 1022.0 1022.0 3.2
31/11:00pm 11.8 12.3 11.6 99 0.1 CALM 0 0 0 0 1022.1 - 3.2
31/10:30pm 11.9 12.4 11.5 97 0.2 CALM 0 0 0 0 1022.3 - 3.2
31/10:02pm 12.0 12.4 11.4 96 0.3 CALM 0 0 0 0 1022.1 - 3.2
31/10:00pm 12.0 12.5 11.6 97 0.2 CALM 0 0 0 0 1022.1 - 3.2
31/09:30pm 12.2 12.8 11.8 97 0.2 CALM 0 0 0 0 1022.1 - 3.2
31/09:27pm 12.4 13.0 11.8 96 0.3 CALM 0 0 0 0 1022.2 - 3.2
31/09:16pm 12.6 13.2 12.0 96 0.3 CALM 0 0 0 0 1022.1 - 3.0
31/09:00pm 12.4 13.0 11.8 96 0.3 CALM 0 0 0 0 1022.0 - 3.0
31/08:55pm 12.4 12.8 11.4 94 0.5 CALM 0 0 0 0 1021.9 - 3.0
31/08:30pm 13.3 13.3 12.4 94 0.5 SSW 4 9 2 5 1021.7 1021.7 3.0
31/08:00pm 13.3 13.0 12.6 95 0.4 SSW 6 9 3 5 1021.5 - 3.0
31/07:30pm 13.4 12.9 12.5 94 0.5 SSW 7 9 4 5 1021.2 - 3.0
31/07:00pm 14.2 15.1 12.9 92 0.7 CALM 0 0 0 0 1021.1 - 3.0
31/06:30pm 14.4 15.4 13.1 92 0.7 CALM 0 2 0 1 1020.7 - 3.0
31/06:00pm 14.8 14.3 12.8 88 1.1 W 7 11 4 6 1020.7 - 3.0
31/05:30pm 15.4 12.7 13.0 85 1.3 W 19 26 10 14 1020.9 1020.9 2.6
31/05:28pm 15.3 12.6 12.9 85 1.3 W 19 26 10 14 1020.9 - 2.6
31/05:03pm 15.6 10.5 13.6 88 1.1 W 33 39 18 21 1020.7 - 2.4
31/05:00pm 15.8 11.0 14.6 93 0.7 WSW 33 43 18 23 1020.7 - 2.2
31/04:30pm 16.3 10.7 14.5 89 1.0 WSW 37 46 20 25 1020.4 - 1.8
31/04:21pm 16.4 10.4 14.5 88 1.1 W 39 46 21 25 1020.2 - 1.8
31/04:00pm 16.3 11.2 14.9 91 0.8 W 35 48 19 26 1020.1 - 1.4
31/03:55pm 16.1 11.4 13.2 83 1.6 W 30 43 16 23 1020.2 - 1.2
31/03:52pm 16.4 12.1 13.2 81 1.8 W 28 43 15 23 1020.3 - 0.4
31/03:30pm 18.4 16.8 11.6 64 3.7 NW 11 22 6 12 1020.1 - 0.0
31/03:00pm 18.4 16.3 11.2 63 3.9 NW 13 24 7 13 1020.1 - 0.0
31/02:30pm 18.3 16.1 10.7 61 4.1 NW 13 22 7 12 1020.4 1020.4 0.0
31/02:00pm 20.0 17.4 10.6 54 5.1 NW 15 26 8 14 1020.5 - 0.0
31/01:30pm 19.3 17.0 11.7 61 4.2 NW 15 24 8 13 1020.6 - 0.0
31/01:00pm 18.6 16.0 10.8 60 4.2 NW 15 26 8 14 1020.7 - 0.0
31/12:30pm 19.5 16.5 10.8 57 4.7 NW 17 30 9 16 1021.0 - 0.0
31/12:00pm 19.4 17.0 10.2 55 4.9 NNW 13 22 7 12 1021.4 - 0.0
31/11:30am 19.8 17.8 10.3 54 5.1 NW 11 24 6 13 1021.8 1021.8 0.0
31/11:00am 19.5 17.6 10.4 55 4.9 NNW 11 20 6 11 1022.4 - 0.0
31/10:30am 19.4 16.6 10.0 54 5.0 NNW 15 26 8 14 1022.8 - 0.0
31/10:00am 19.1 16.5 9.2 52 5.2 N 13 24 7 13 1022.9 - 0.0
31/09:30am 18.9 16.6 8.9 52 5.2 NW 11 22 6 12 1023.3 - 0.0
31/09:00am 18.7 16.0 9.1 53 5.0 NW 13 26 7 14 1023.3 - 0.0
31/08:30am 18.3 15.5 8.6 53 5.0 NW 13 22 7 12 1023.4 1023.4 0.0
31/08:00am 17.5 14.5 7.8 53 4.9 NW 13 22 7 12 1023.2 - 0.0
31/07:30am 17.4 15.0 8.6 56 4.5 NNW 11 20 6 11 1023.0 - 0.0
31/07:00am 16.5 14.4 8.4 58 4.1 N 9 15 5 8 1022.9 - 0.0
31/06:30am 16.2 14.7 8.3 59 4.0 NNW 6 11 3 6 1022.9 - 0.0
31/06:00am 16.3 14.5 9.5 64 3.5 N 9 17 5 9 1022.9 - 0.0
31/05:30am 15.7 13.8 9.0 64 3.4 N 9 15 5 8 1022.7 1022.7 0.0
31/05:00am 15.9 13.5 8.8 62 3.6 N 11 17 6 9 1022.4 - 0.0
31/04:30am 15.4 13.2 8.0 61 3.7 N 9 17 5 9 1022.6 - 0.0
31/04:00am 15.3 13.0 7.6 60 3.8 N 9 15 5 8 1022.6 - 0.0
31/03:30am 15.5 13.5 8.8 64 3.4 N 9 13 5 7 1022.9 - 0.0
31/03:00am 15.7 13.1 7.9 59 3.9 N 11 15 6 8 1023.3 - 0.0
31/02:30am 15.4 13.2 7.7 60 3.8 N 9 17 5 9 1023.5 1023.5 0.0
31/02:00am 15.8 13.3 8.2 60 3.8 N 11 17 6 9 1024.1 - 0.0

Other Formats:

Comma delimited format used in spreadsheet applications
http://www.bom.gov.au/fwo/IDN60801/IDN60801.94995.axf

JavaScript Object Notation format (JSON) in row-major order
http://www.bom.gov.au/fwo/IDN60801/IDN60801.94995.json